CheckWX is a tool to help pilots better visualize weather data.  It is not intended as a substitute for an official pre-flight weather briefing.

10:32:07 UTC

EGPE TAF
Inverness Airport
Inverness, United Kingdom
TAF EGPE 280759Z 2809/2818 22009KT 9999 FEW008 SCT020

Jan-28@
09:00 UTC

Jan-28 @ 09:00 UTC

Jan-28@
18:00 UTC

Jan-28 @ 18:00 UTC

TAF EGPE 280759Z 2809/2818 22009KT 9999 FEW008 SCT020
Wind
  • 220° at 9 KTS
Cloud Levels
  • Few at 800' AGL
  • Scattered at 2,000' AGL